Time;durP1;ratioP1;P1;durP2;ratioP2;P2;SDS_P1;SDS_P2;PMS_P1;PMS_P2;Temp;Humidity;BMP_temperature;BMP_pressure;BME280_temperature;BME280_humidity;BME280_pressure;Samples;Min_cycle;Max_cycle;Signal;HPM_P1;HPM_P2
2023/03/07 00:02:07;;;;;;;22.33;7.82;;;;;;;9.40;58.91;95186.34;5046336;28;20468;-51
2023/03/07 00:04:35;;;;;;;14.45;6.80;;;;;;;8.94;62.34;95186.09;5042613;28;20072;-57
2023/03/07 00:07:03;;;;;;;15.98;8.07;;;;;;;9.05;62.57;95180.50;5043710;28;20083;-52
2023/03/07 00:09:32;;;;;;;21.55;7.78;;;;;;;9.42;58.20;95161.50;5042816;28;20096;-54
2023/03/07 00:12:00;;;;;;;14.93;7.95;;;;;;;9.21;59.37;95171.75;5048498;28;20072;-52
2023/03/07 00:14:30;;;;;;;16.80;8.75;;;;;;;9.46;57.26;95167.22;5047542;28;20083;-51
2023/03/07 00:16:58;;;;;;;17.67;9.00;;;;;;;9.35;57.98;95175.50;5049091;28;20455;-49
2023/03/07 00:19:26;;;;;;;16.00;8.60;;;;;;;9.02;58.82;95180.84;5048165;28;20498;-52
2023/03/07 00:21:55;;;;;;;15.77;7.78;;;;;;;9.30;58.80;95168.13;5048665;28;20077;-50
2023/03/07 00:24:23;;;;;;;16.80;8.35;;;;;;;9.54;58.14;95161.97;5048307;28;20075;-59
2023/03/07 00:26:51;;;;;;;20.95;8.55;;;;;;;9.75;56.27;95162.19;5047254;28;20076;-54
2023/03/07 00:29:21;;;;;;;18.10;8.38;;;;;;;9.70;55.69;95161.06;5048636;28;20860;-54
2023/03/07 00:31:51;;;;;;;16.63;8.30;;;;;;;9.74;55.07;95165.84;5048626;28;20063;-52
2023/03/07 00:34:20;;;;;;;19.23;9.03;;;;;;;9.60;56.61;95161.28;5047557;28;20068;-54
2023/03/07 00:36:48;;;;;;;19.65;8.57;;;;;;;9.52;57.66;95156.84;5048576;28;20072;-53
2023/03/07 00:39:16;;;;;;;17.48;8.77;;;;;;;9.84;55.85;95152.47;5048125;28;20084;-49
2023/03/07 00:41:45;;;;;;;16.67;8.90;;;;;;;9.55;57.84;95149.63;5047608;28;20068;-53
2023/03/07 00:44:13;;;;;;;18.35;8.45;;;;;;;9.51;58.46;95149.97;5048386;28;20076;-51
2023/03/07 00:46:41;;;;;;;17.23;8.75;;;;;;;9.74;57.58;95147.41;5047353;28;20064;-51
2023/03/07 00:49:11;;;;;;;18.40;8.85;;;;;;;8.66;61.62;95157.53;5049932;28;20457;-52
2023/03/07 00:51:40;;;;;;;17.80;8.15;;;;;;;9.10;60.75;95144.00;5049759;28;20079;-50
2023/03/07 00:54:08;;;;;;;18.70;9.05;;;;;;;9.24;61.58;95131.97;5047027;28;20068;-53
2023/03/07 00:56:36;;;;;;;18.88;9.25;;;;;;;9.11;60.98;95139.56;5045865;28;20069;-50
2023/03/07 00:59:05;;;;;;;20.83;9.25;;;;;;;9.13;59.76;95137.59;5048024;28;20096;-49
2023/03/07 01:01:33;;;;;;;17.95;8.40;;;;;;;9.56;59.43;95123.13;5048339;28;20088;-54
2023/03/07 01:04:01;;;;;;;20.77;8.68;;;;;;;9.34;60.42;95129.16;5047890;28;20155;-53
2023/03/07 01:06:32;;;;;;;19.23;9.02;;;;;;;9.45;60.36;95124.31;5046238;28;20083;-54
2023/03/07 01:09:02;;;;;;;20.80;9.18;;;;;;;9.36;60.38;95129.78;5045450;28;20072;-56
2023/03/07 01:11:31;;;;;;;16.30;8.57;;;;;;;8.86;64.08;95126.47;5048461;28;20107;-54
2023/03/07 01:14:01;;;;;;;17.98;9.23;;;;;;;9.42;60.20;95118.59;5045919;28;20080;-53
2023/03/07 01:16:31;;;;;;;16.77;9.40;;;;;;;9.22;61.60;95121.63;5047750;28;20087;-51
2023/03/07 01:19:01;;;;;;;18.20;9.40;;;;;;;8.43;67.30;95131.09;5048368;28;20068;-48
2023/03/07 01:21:52;;;;;;;19.20;9.20;;;;;;;8.84;67.23;95117.91;5046595;28;20064;-52
2023/03/07 01:24:20;;;;;;;16.55;8.77;;;;;;;9.41;61.82;95106.44;5045139;28;20509;-52
2023/03/07 01:26:49;;;;;;;19.13;8.82;;;;;;;9.34;62.56;95111.53;5045888;28;20068;-53
2023/03/07 01:29:17;;;;;;;17.67;8.55;;;;;;;9.01;64.17;95105.56;5046599;28;20080;-53
2023/03/07 01:31:45;;;;;;;21.48;9.30;;;;;;;8.80;64.12;95117.44;5044332;28;20087;-54
2023/03/07 01:34:14;;;;;;;20.00;8.95;;;;;;;9.12;64.05;95102.59;5048103;28;20101;-52
2023/03/07 01:36:43;;;;;;;20.92;9.25;;;;;;;8.66;64.96;95107.59;5074987;28;20084;-50
2023/03/07 01:39:13;;;;;;;16.77;8.83;;;;;;;9.50;61.59;95097.53;5050081;28;20443;-50
2023/03/07 01:41:42;;;;;;;17.48;8.70;;;;;;;9.60;59.75;95095.50;5047587;28;20071;-52
2023/03/07 01:44:16;;;;;;;17.02;8.55;;;;;;;9.54;58.84;95096.19;5048243;28;20069;-54
2023/03/07 01:46:51;;;;;;;17.25;9.57;;;;;;;9.48;60.14;95092.41;5046513;28;20107;-54
2023/03/07 01:49:23;;;;;;;17.40;8.65;;;;;;;9.69;58.29;95089.19;5046402;28;20077;-54
2023/03/07 01:51:57;;;;;;;18.33;9.18;;;;;;;9.77;57.90;95083.03;5044506;28;20080;-51
2023/03/07 01:54:26;;;;;;;19.63;9.38;;;;;;;9.73;57.57;95082.56;5047603;28;20505;-51
2023/03/07 01:56:54;;;;;;;20.30;9.65;;;;;;;9.55;58.76;95081.19;5049482;28;20071;-51
2023/03/07 01:59:28;;;;;;;19.38;9.52;;;;;;;9.47;58.50;95084.69;5078798;28;20639;-51
2023/03/07 02:01:58;;;;;;;17.27;8.73;;;;;;;9.97;56.86;95081.59;5047466;28;20081;-51
2023/03/07 02:04:28;;;;;;;16.67;8.68;;;;;;;9.93;56.38;95080.31;5047536;28;20549;-53
2023/03/07 02:06:59;;;;;;;18.05;9.02;;;;;;;10.16;55.58;95077.69;5046826;28;20513;-51
2023/03/07 02:09:27;;;;;;;;;;;;;;;10.48;53.93;95062.66;5079178;28;20079;-51
2023/03/07 02:11:56;;;;;;;17.80;7.95;;;;;;;10.35;54.43;95057.97;5046994;28;20027;-50
2023/03/07 02:14:25;;;;;;;16.20;8.15;;;;;;;10.25;54.00;95060.00;5047823;28;20077;-53
2023/03/07 02:16:53;;;;;;;16.60;8.57;;;;;;;10.30;54.32;95056.88;5045772;28;20079;-54
2023/03/07 02:19:45;;;;;;;17.63;8.63;;;;;;;10.32;53.71;95047.78;5047515;28;20068;-48
2023/03/07 02:22:17;;;;;;;16.00;8.32;;;;;;;10.12;54.54;95054.53;5042842;28;20522;-49
2023/03/07 02:24:50;;;;;;;16.92;8.52;;;;;;;9.79;56.48;95057.38;5045372;28;20064;-51
2023/03/07 02:27:20;;;;;;;21.13;9.57;;;;;;;9.65;56.38;95060.75;5043944;28;20449;-51
2023/03/07 02:29:48;;;;;;;17.48;8.98;;;;;;;9.30;57.81;95055.00;5044731;28;20077;-54
2023/03/07 02:32:16;;;;;;;18.63;9.40;;;;;;;9.23;61.59;95059.31;5048781;28;20563;-52
2023/03/07 02:34:45;;;;;;;19.67;9.77;;;;;;;8.81;63.11;95060.44;5038529;28;20065;-51
2023/03/07 02:37:17;;;;;;;19.52;9.82;;;;;;;8.71;66.35;95065.06;5047556;28;20489;-50
2023/03/07 02:39:46;;;;;;;17.10;9.20;;;;;;;8.42;68.94;95073.47;5046018;28;20068;-51
2023/03/07 02:42:18;;;;;;;18.17;8.63;;;;;;;8.29;67.60;95066.03;5047304;28;20472;-53
2023/03/07 02:44:56;;;;;;;18.20;9.77;;;;;;;8.01;71.35;95074.25;5041862;28;20075;-51
2023/03/07 02:47:24;;;;;;;18.88;9.70;;;;;;;8.13;70.97;95069.50;5046957;28;20174;-53
2023/03/07 02:49:53;;;;;;;19.35;9.38;;;;;;;7.89;71.49;95069.50;5046308;28;20076;-52
2023/03/07 02:52:22;;;;;;;17.60;8.63;;;;;;;8.20;72.49;95062.63;5045630;28;20092;-51
2023/03/07 02:54:50;;;;;;;19.17;9.95;;;;;;;8.27;72.63;95066.22;5044117;28;20076;-52
2023/03/07 02:57:19;;;;;;;18.10;8.63;;;;;;;7.81;72.36;95071.13;5049267;28;20073;-54
2023/03/07 02:59:49;;;;;;;15.60;8.43;;;;;;;7.94;69.54;95070.63;5054915;28;20864;-52
2023/03/07 03:02:17;;;;;;;17.95;8.73;;;;;;;8.33;69.20;95065.56;5044197;28;20087;-52
2023/03/07 03:04:45;;;;;;;16.45;8.30;;;;;;;8.24;67.47;95060.47;5044618;28;20065;-51
2023/03/07 03:07:14;;;;;;;15.85;8.43;;;;;;;8.13;71.07;95055.56;5046076;28;20100;-53
2023/03/07 03:09:42;;;;;;;17.48;8.95;;;;;;;8.48;68.81;95057.03;5045168;28;20068;-54
2023/03/07 03:12:10;;;;;;;16.50;8.40;;;;;;;7.89;69.34;95066.88;5044280;28;20076;-53
2023/03/07 03:14:39;;;;;;;17.13;7.60;;;;;;;8.86;66.63;95057.31;5044533;28;20063;-50
2023/03/07 03:17:09;;;;;;;16.52;8.40;;;;;;;8.55;68.19;95056.22;5042718;28;20088;-55
2023/03/07 03:19:37;;;;;;;17.37;8.77;;;;;;;8.75;65.75;95053.22;5041514;28;20083;-51
2023/03/07 03:22:05;;;;;;;16.05;7.47;;;;;;;8.45;64.80;95047.69;5042871;28;20073;-51
2023/03/07 03:24:37;;;;;;;18.63;7.97;;;;;;;8.46;66.74;95051.13;5040615;28;20072;-56
2023/03/07 03:27:05;;;;;;;18.50;8.65;;;;;;;8.73;63.54;95049.94;5045444;28;20710;-50
2023/03/07 03:29:34;;;;;;;14.65;7.53;;;;;;;8.64;65.13;95048.34;5044239;28;20487;-51
2023/03/07 03:32:03;;;;;;;14.95;8.00;;;;;;;8.85;65.52;95045.16;5044531;28;20084;-51
2023/03/07 03:34:32;;;;;;;15.77;7.57;;;;;;;8.58;64.32;95051.63;5043612;28;20462;-52
2023/03/07 03:37:01;;;;;;;17.10;8.97;;;;;;;8.29;66.33;95050.28;5043566;28;20065;-54
2023/03/07 03:39:29;;;;;;;15.57;8.18;;;;;;;8.74;64.37;95048.94;5047788;28;20128;-48
2023/03/07 03:41:58;;;;;;;14.77;7.80;;;;;;;7.97;66.55;95049.31;5040293;28;20084;-54
2023/03/07 03:44:26;;;;;;;17.08;7.88;;;;;;;8.51;65.81;95041.78;5043437;28;20470;-52
2023/03/07 03:46:54;;;;;;;19.05;7.90;;;;;;;8.80;64.29;95035.94;5043942;28;20072;-52
2023/03/07 03:49:23;;;;;;;12.93;6.40;;;;;;;8.59;63.90;95027.78;5045395;28;20041;-53
2023/03/07 03:51:52;;;;;;;15.15;7.57;;;;;;;9.26;60.37;95025.59;5046695;28;20084;-54
2023/03/07 03:54:21;;;;;;;13.40;6.87;;;;;;;8.35;63.27;95031.25;5047603;28;20791;-51
2023/03/07 03:56:49;;;;;;;16.13;7.63;;;;;;;8.28;63.34;95019.78;5048526;28;20108;-54
2023/03/07 03:59:17;;;;;;;11.73;6.20;;;;;;;7.81;66.09;95034.38;5047428;28;20095;-56
2023/03/07 04:01:46;;;;;;;14.48;7.63;;;;;;;8.13;65.72;95032.75;5046311;28;20088;-54
2023/03/07 04:04:15;;;;;;;16.83;8.98;;;;;;;7.73;64.38;95034.34;5047617;28;20080;-48
2023/03/07 04:06:43;;;;;;;14.68;7.13;;;;;;;8.57;61.68;95016.66;5045565;28;20501;-50
2023/03/07 04:09:13;;;;;;;15.73;7.07;;;;;;;8.27;63.11;95020.75;5073450;28;20526;-53
2023/03/07 04:11:41;;;;;;;14.47;7.63;;;;;;;8.17;62.88;95025.38;5048066;28;20048;-51
2023/03/07 04:14:10;;;;;;;16.98;7.63;;;;;;;8.14;62.94;95020.44;5077667;28;20502;-53
2023/03/07 04:16:38;;;;;;;12.68;6.47;;;;;;;8.60;60.73;95018.91;5047241;28;20069;-54
2023/03/07 04:19:08;;;;;;;16.77;7.38;;;;;;;8.58;59.43;95018.28;5047190;28;20085;-49
2023/03/07 04:21:37;;;;;;;14.88;7.10;;;;;;;8.01;62.12;95027.00;5047901;28;20786;-54
2023/03/07 04:24:06;;;;;;;12.45;6.45;;;;;;;8.86;58.91;95021.31;5049467;28;20077;-51
2023/03/07 04:26:36;;;;;;;14.98;7.63;;;;;;;8.16;62.09;95021.94;5050996;28;20076;-53
2023/03/07 04:29:05;;;;;;;14.07;6.93;;;;;;;8.07;61.86;95020.28;5048912;28;20473;-53
2023/03/07 04:31:33;;;;;;;12.73;6.50;;;;;;;8.07;63.03;95018.47;5042695;28;20088;-52
2023/03/07 04:34:01;;;;;;;14.95;7.10;;;;;;;8.62;59.37;95016.94;5043986;28;20076;-54
2023/03/07 04:36:30;;;;;;;14.45;7.97;;;;;;;8.56;59.78;95007.91;5044715;28;20080;-52
2023/03/07 04:38:58;;;;;;;13.93;6.97;;;;;;;8.46;58.89;95011.72;5045272;28;20087;-49
2023/03/07 04:41:26;;;;;;;14.63;7.13;;;;;;;8.71;59.50;95020.41;5047780;28;20077;-51
2023/03/07 04:43:56;;;;;;;15.52;7.35;;;;;;;8.37;59.54;95016.16;5046304;28;20076;-51
2023/03/07 04:46:25;;;;;;;15.60;7.37;;;;;;;8.13;61.90;95011.75;5046704;28;20506;-51
2023/03/07 04:48:53;;;;;;;16.52;8.20;;;;;;;8.05;61.50;95009.97;5046620;28;20076;-53
2023/03/07 04:51:21;;;;;;;13.75;6.93;;;;;;;8.14;62.29;95012.56;5048740;28;20695;-50
2023/03/07 04:53:50;;;;;;;10.20;5.80;;;;;;;7.94;62.11;95018.13;5046303;28;20095;-54
2023/03/07 04:56:18;;;;;;;13.52;6.60;;;;;;;7.89;61.75;95027.50;5047619;28;20537;-56
2023/03/07 04:58:46;;;;;;;14.10;6.40;;;;;;;8.12;60.52;95017.16;5048882;28;20076;-53
2023/03/07 05:01:16;;;;;;;13.48;7.03;;;;;;;7.87;63.60;95024.22;5046896;28;20558;-51
2023/03/07 05:03:44;;;;;;;11.90;5.30;;;;;;;8.24;62.21;95013.22;5046943;28;20528;-51
2023/03/07 05:06:14;;;;;;;13.45;5.78;;;;;;;7.67;62.87;95015.81;5048618;28;20144;-56
2023/03/07 05:08:43;;;;;;;18.48;7.60;;;;;;;7.64;63.69;95024.84;5046514;28;20087;-52
2023/03/07 05:11:11;;;;;;;14.48;7.57;;;;;;;7.90;63.75;95013.38;5047330;28;20459;-54
2023/03/07 05:13:39;;;;;;;11.10;4.82;;;;;;;7.82;63.69;95025.53;5046028;28;20089;-49
2023/03/07 05:16:08;;;;;;;15.75;6.47;;;;;;;7.70;63.41;95023.38;5047692;28;20133;-56
2023/03/07 05:18:38;;;;;;;11.90;6.03;;;;;;;7.82;65.73;95022.09;5049939;28;20514;-53
2023/03/07 05:21:06;;;;;;;13.90;6.87;;;;;;;7.55;64.73;95028.44;5050505;28;20503;-50
2023/03/07 05:23:35;;;;;;;9.88;5.15;;;;;;;7.49;65.87;95032.50;5047544;28;20045;-50
2023/03/07 05:26:03;;;;;;;10.82;5.15;;;;;;;7.76;64.16;95020.09;5047689;28;20080;-52
2023/03/07 05:28:32;;;;;;;14.88;6.22;;;;;;;7.12;67.81;95025.88;5043940;28;20076;-53
2023/03/07 05:31:01;;;;;;;10.18;5.18;;;;;;;7.29;67.57;95025.91;5047633;28;20084;-52
2023/03/07 05:33:30;;;;;;;10.07;5.93;;;;;;;7.57;67.15;95026.47;5049312;28;20083;-55
2023/03/07 05:36:01;;;;;;;13.73;6.15;;;;;;;7.53;66.92;95027.78;5044037;28;20081;-54
2023/03/07 05:38:29;;;;;;;11.35;5.38;;;;;;;7.24;68.36;95022.97;5049914;28;20072;-49
2023/03/07 05:40:57;;;;;;;12.38;6.25;;;;;;;7.30;66.25;95028.38;5050471;28;20065;-52
2023/03/07 05:43:26;;;;;;;7.88;4.07;;;;;;;7.08;66.16;95029.78;5049858;28;20383;-55
2023/03/07 05:45:54;;;;;;;13.07;6.30;;;;;;;7.32;66.19;95022.97;5049913;28;20080;-56
2023/03/07 05:48:23;;;;;;;13.48;5.90;;;;;;;7.90;62.43;95022.06;5048937;28;20068;-53
2023/03/07 05:50:51;;;;;;;12.95;6.18;;;;;;;7.78;63.08;95028.66;5050992;28;20095;-49
2023/03/07 05:53:21;;;;;;;10.50;5.30;;;;;;;7.14;64.30;95028.31;5050256;28;20076;-55
2023/03/07 05:55:49;;;;;;;13.80;6.17;;;;;;;7.54;63.46;95030.25;5050908;28;20080;-53
2023/03/07 05:58:17;;;;;;;11.55;5.82;;;;;;;7.34;64.08;95026.25;5050447;28;20069;-53
2023/03/07 06:00:46;;;;;;;11.10;4.60;;;;;;;7.62;63.50;95029.44;5049990;28;20072;-51
2023/03/07 06:03:14;;;;;;;16.13;6.38;;;;;;;7.91;60.70;95018.47;5049830;28;20065;-51
2023/03/07 06:05:43;;;;;;;11.80;6.13;;;;;;;7.23;64.54;95022.13;5049061;28;20080;-54
2023/03/07 06:08:11;;;;;;;17.42;6.80;;;;;;;7.65;62.87;95023.88;5044534;28;20076;-54
2023/03/07 06:10:41;;;;;;;12.70;6.70;;;;;;;7.70;61.45;95026.00;5049654;28;20064;-52
2023/03/07 06:13:19;;;;;;;13.38;5.85;;;;;;;7.82;60.64;95022.91;5049614;28;20275;-57
2023/03/07 06:15:49;;;;;;;11.20;5.10;;;;;;;7.55;62.28;95025.81;5049876;28;20075;-50
2023/03/07 06:18:17;;;;;;;13.88;6.05;;;;;;;8.20;60.17;95014.53;5050796;28;20084;-54
2023/03/07 06:20:54;;;;;;;11.95;5.55;;;;;;;7.82;61.23;95020.28;5049401;28;20077;-56
2023/03/07 06:23:23;;;;;;;13.13;6.57;;;;;;;8.06;58.48;95018.66;5078791;28;20212;-54
2023/03/07 06:25:53;;;;;;;17.65;7.57;;;;;;;8.22;58.98;95016.00;5049400;28;20087;-53
2023/03/07 06:28:21;;;;;;;16.20;6.40;;;;;;;8.06;58.00;95022.09;5049905;28;20061;-53
2023/03/07 06:30:50;;;;;;;13.35;6.78;;;;;;;8.20;57.90;95017.16;5048781;28;20525;-54
2023/03/07 06:33:18;;;;;;;10.32;5.13;;;;;;;8.23;57.57;95022.91;5049598;28;20073;-48
2023/03/07 06:35:47;;;;;;;8.93;4.65;;;;;;;8.14;57.67;95017.81;5047493;28;20552;-56
2023/03/07 06:38:17;;;;;;;10.52;5.57;;;;;;;8.20;57.01;95015.34;5048624;28;20071;-51
2023/03/07 06:40:45;;;;;;;8.77;4.10;;;;;;;8.34;57.74;95019.13;5047429;28;20064;-49
2023/03/07 06:43:15;;;;;;;12.35;5.22;;;;;;;8.60;56.46;95018.09;5043531;28;20064;-54
2023/03/07 06:45:43;;;;;;;9.03;4.50;;;;;;;8.54;56.54;95011.72;5048644;28;20076;-49
2023/03/07 06:48:11;;;;;;;10.95;4.60;;;;;;;8.42;57.03;95015.69;5055499;28;20064;-55
2023/03/07 06:50:40;;;;;;;11.25;5.13;;;;;;;8.11;56.83;95010.25;5050349;28;20063;-53
2023/03/07 06:53:08;;;;;;;14.40;5.55;;;;;;;8.63;56.26;95005.44;5048522;28;20087;-51
2023/03/07 06:55:36;;;;;;;10.38;4.68;;;;;;;8.12;56.64;95017.16;5048742;28;20092;-51
2023/03/07 06:58:05;;;;;;;9.20;4.43;;;;;;;8.70;55.57;95016.09;5048943;28;20461;-55
2023/03/07 07:00:34;;;;;;;7.53;3.60;;;;;;;8.51;57.09;95010.25;5048853;28;20064;-50
2023/03/07 07:03:03;;;;;;;10.63;5.23;;;;;;;8.02;57.42;95025.22;5046011;28;20081;-51
2023/03/07 07:05:31;;;;;;;9.93;4.85;;;;;;;8.38;57.13;95017.81;5048526;28;20517;-51
2023/03/07 07:08:00;;;;;;;11.25;4.82;;;;;;;7.76;57.65;95030.59;5049244;28;20059;-50
2023/03/07 07:10:28;;;;;;;9.30;4.95;;;;;;;8.11;56.07;95016.34;5049020;28;20095;-50
2023/03/07 07:12:56;;;;;;;10.45;3.92;;;;;;;8.25;57.44;95020.91;5044012;28;20072;-55
2023/03/07 07:15:26;;;;;;;10.18;3.45;;;;;;;8.13;57.27;95024.06;5048084;28;20494;-50
2023/03/07 07:17:56;;;;;;;10.40;4.30;;;;;;;8.39;56.33;95029.97;5046509;28;20075;-56
2023/03/07 07:20:24;;;;;;;12.40;7.07;;;;;;;8.43;56.04;95026.03;5048212;28;20080;-51
2023/03/07 07:22:52;;;;;;;10.43;5.20;;;;;;;8.45;55.61;95025.84;5048481;28;20068;-50
2023/03/07 07:25:21;;;;;;;7.25;3.72;;;;;;;8.40;55.91;95025.56;5047608;28;20092;-54
2023/03/07 07:27:49;;;;;;;11.90;4.97;;;;;;;8.02;57.41;95031.28;5047916;28;20084;-54
2023/03/07 07:30:18;;;;;;;12.05;5.15;;;;;;;8.73;53.97;95023.66;5047687;28;20609;-51
2023/03/07 07:32:46;;;;;;;8.90;4.35;;;;;;;8.21;53.45;95014.34;5047912;28;20076;-51
2023/03/07 07:35:16;;;;;;;9.85;5.32;;;;;;;8.79;52.90;95001.97;5046591;28;20080;-50
2023/03/07 07:37:45;;;;;;;7.88;3.55;;;;;;;8.42;54.11;95005.97;5047781;28;20080;-51
2023/03/07 07:40:14;;;;;;;8.55;5.00;;;;;;;8.84;53.60;94998.81;5048499;28;20072;-51
2023/03/07 07:42:43;;;;;;;10.10;4.82;;;;;;;9.33;51.96;94998.63;5048239;28;20530;-52
2023/03/07 07:45:11;;;;;;;8.95;4.05;;;;;;;8.91;54.47;95011.13;5047634;28;20105;-50
2023/03/07 07:47:40;;;;;;;7.88;3.95;;;;;;;9.23;51.50;94999.66;5047767;28;20127;-51
2023/03/07 07:50:09;;;;;;;10.88;5.60;;;;;;;8.98;51.58;94992.84;5048736;28;20534;-53
2023/03/07 07:52:39;;;;;;;7.20;3.83;;;;;;;9.02;51.71;94986.28;5050673;28;20138;-52
2023/03/07 07:55:09;;;;;;;8.13;4.87;;;;;;;8.49;52.28;94987.75;5047940;28;20537;-52
2023/03/07 07:57:37;;;;;;;10.95;4.97;;;;;;;8.91;50.02;94992.72;5046070;28;20814;-51
2023/03/07 08:00:07;;;;;;;7.00;3.60;;;;;;;9.02;51.63;94994.97;5041213;28;20068;-52
2023/03/07 08:02:36;;;;;;;9.48;3.92;;;;;;;8.48;51.34;94986.94;5048538;28;20091;-51
2023/03/07 08:05:09;;;;;;;13.02;6.15;;;;;;;9.28;50.15;94983.34;5047568;28;20092;-48
2023/03/07 08:07:38;;;;;;;10.60;5.60;;;;;;;8.87;50.90;94990.59;5048035;28;20079;-55
2023/03/07 08:10:08;;;;;;;10.35;5.75;;;;;;;9.42;49.66;94987.84;5048017;28;20659;-53
2023/03/07 08:12:37;;;;;;;8.77;4.25;;;;;;;9.24;49.54;94988.13;5047952;28;20076;-56
2023/03/07 08:15:06;;;;;;;9.57;4.95;;;;;;;9.60;48.98;94986.75;5047450;28;20076;-51
2023/03/07 08:17:34;;;;;;;9.25;4.93;;;;;;;9.88;49.93;94971.28;5044455;28;20076;-50
2023/03/07 08:20:08;;;;;;;5.57;3.35;;;;;;;9.08;49.28;94974.22;5044882;28;20065;-54
2023/03/07 08:22:36;;;;;;;13.10;7.28;;;;;;;9.44;48.76;94983.25;5044318;28;20514;-50
2023/03/07 08:25:08;;;;;;;10.48;4.40;;;;;;;9.73;47.93;94974.66;5047509;28;20073;-56
2023/03/07 08:27:36;;;;;;;10.93;5.13;;;;;;;9.31;48.84;94975.09;5047502;28;20470;-52
2023/03/07 08:30:05;;;;;;;7.78;4.80;;;;;;;9.71;47.54;94973.22;5047805;28;20418;-51
2023/03/07 08:32:33;;;;;;;11.40;6.20;;;;;;;9.98;48.70;94962.13;5047590;28;20084;-51
2023/03/07 08:35:02;;;;;;;9.95;5.10;;;;;;;10.03;46.99;94964.22;5050914;28;20068;-53
2023/03/07 08:37:31;;;;;;;6.18;3.75;;;;;;;9.85;47.40;94963.72;5051293;28;20446;-50
2023/03/07 08:39:59;;;;;;;6.55;2.83;;;;;;;10.27;47.90;94959.75;5051467;28;20064;-49
2023/03/07 08:42:29;;;;;;;8.55;3.78;;;;;;;9.78;47.42;94950.44;5051212;28;20080;-50
2023/03/07 08:44:57;;;;;;;6.03;3.57;;;;;;;9.72;47.47;94956.41;5049515;28;20525;-49
2023/03/07 08:47:25;;;;;;;9.25;4.53;;;;;;;10.73;46.54;94952.50;5050893;28;20920;-51
2023/03/07 08:49:54;;;;;;;6.25;4.15;;;;;;;10.04;47.99;94947.41;5051310;28;20064;-50
2023/03/07 08:52:23;;;;;;;5.00;2.75;;;;;;;9.71;47.61;94950.34;5054155;28;20095;-52
2023/03/07 08:54:51;;;;;;;10.95;4.28;;;;;;;10.37;46.83;94949.78;5048952;28;20080;-51
2023/03/07 08:57:20;;;;;;;9.20;4.00;;;;;;;10.02;46.85;94940.72;5049088;28;20091;-54
2023/03/07 08:59:50;;;;;;;5.00;3.47;;;;;;;10.71;47.45;94940.53;5051001;28;20072;-52
2023/03/07 09:02:18;;;;;;;6.07;2.83;;;;;;;10.79;48.78;94943.88;5051259;28;20068;-53
2023/03/07 09:04:47;;;;;;;7.30;3.70;;;;;;;11.01;49.01;94936.00;5049374;28;20438;-53
2023/03/07 09:07:15;;;;;;;6.00;3.08;;;;;;;10.61;48.77;94946.06;5051001;28;20099;-51
2023/03/07 09:09:44;;;;;;;7.13;3.80;;;;;;;10.36;46.86;94940.25;5050586;28;20088;-55
2023/03/07 09:12:12;;;;;;;6.57;3.05;;;;;;;11.12;47.83;94939.00;5050772;28;20064;-51
2023/03/07 09:14:42;;;;;;;11.13;4.93;;;;;;;10.99;46.40;94954.69;5047741;28;20077;-51
2023/03/07 09:17:11;;;;;;;12.93;5.05;;;;;;;11.00;46.66;94942.31;5050559;28;21045;-54
2023/03/07 09:19:41;;;;;;;9.55;3.75;;;;;;;11.33;44.68;94942.69;5050501;28;20089;-48
2023/03/07 09:22:09;;;;;;;8.35;4.03;;;;;;;10.97;47.97;94942.66;5050596;28;20171;-49
2023/03/07 09:24:37;;;;;;;6.88;3.45;;;;;;;10.65;46.94;94948.16;5050602;28;20100;-51
2023/03/07 09:27:06;;;;;;;7.55;3.35;;;;;;;11.05;46.52;94940.75;5050438;28;20080;-52
2023/03/07 09:29:34;;;;;;;5.57;2.83;;;;;;;11.76;45.11;94924.22;5050511;28;20079;-53
2023/03/07 09:32:03;;;;;;;10.60;4.70;;;;;;;11.80;44.86;94922.81;5050445;28;20656;-53
2023/03/07 09:34:33;;;;;;;8.73;4.50;;;;;;;11.03;44.38;94928.75;5050060;28;20100;-53
2023/03/07 09:37:01;;;;;;;7.43;3.53;;;;;;;11.77;44.95;94920.59;5073592;28;20076;-55
2023/03/07 09:39:29;;;;;;;5.57;2.88;;;;;;;11.35;44.39;94936.19;5050118;28;20072;-51
2023/03/07 09:42:09;;;;;;;7.43;3.45;;;;;;;11.28;44.72;94926.59;5050061;28;20084;-55
2023/03/07 09:44:49;;;;;;;6.60;3.80;;;;;;;11.30;44.02;94927.22;5048444;28;20676;-53
2023/03/07 09:47:30;;;;;;;6.07;2.90;;;;;;;11.63;43.16;94919.63;5049829;28;20529;-49
2023/03/07 09:50:01;;;;;;;9.40;4.38;;;;;;;12.05;42.71;94904.81;5048874;28;20069;-51
2023/03/07 09:52:34;;;;;;;6.75;3.05;;;;;;;11.85;42.95;94905.44;5047820;28;20526;-52
2023/03/07 09:55:05;;;;;;;6.32;3.45;;;;;;;12.24;44.65;94893.53;5049021;28;20072;-55
2023/03/07 09:57:33;;;;;;;;;;;;;;;12.59;41.49;94890.88;5049656;28;20080;-51
2023/03/07 10:00:08;;;;;;;8.15;2.97;;;;;;;12.72;41.14;94882.22;5050251;28;20397;-53
2023/03/07 10:02:39;;;;;;;9.45;5.00;;;;;;;12.13;39.65;94887.97;5049947;28;20522;-51
2023/03/07 10:05:16;;;;;;;8.52;4.55;;;;;;;11.33;40.60;94884.63;5048701;28;20072;-51
2023/03/07 10:07:45;;;;;;;7.65;4.57;;;;;;;11.31;42.67;94887.44;5049588;28;20064;-55
2023/03/07 10:10:19;;;;;;;11.00;4.43;;;;;;;10.94;41.42;94872.63;5049835;28;20068;-53
2023/03/07 10:12:58;;;;;;;7.88;3.97;;;;;;;10.68;41.86;94884.53;5049353;28;20175;-51
2023/03/07 10:15:44;;;;;;;8.88;4.15;;;;;;;11.38;41.23;94871.69;5049126;28;20087;-50
2023/03/07 10:18:24;;;;;;;8.43;5.07;;;;;;;10.86;41.70;94893.84;5049553;28;20108;-48
2023/03/07 10:21:00;;;;;;;9.18;4.95;;;;;;;11.15;41.75;94872.69;5048068;28;20076;-49
2023/03/07 10:24:03;;;;;;;8.68;4.57;;;;;;;11.33;44.05;94866.16;5049389;28;20083;-54
2023/03/07 10:26:33;;;;;;;7.20;4.07;;;;;;;11.30;42.72;94858.63;5045479;28;20502;-56
2023/03/07 10:29:08;;;;;;;9.23;4.53;;;;;;;11.07;43.51;94864.88;5048830;28;20081;-53
2023/03/07 10:31:39;;;;;;;8.55;4.22;;;;;;;11.43;44.06;94844.75;5049517;28;20082;-51
2023/03/07 10:34:14;;;;;;;9.98;4.68;;;;;;;11.91;43.94;94840.50;5045151;28;20521;-52
2023/03/07 10:36:57;;;;;;;8.88;4.63;;;;;;;11.63;44.32;94848.34;5049179;28;20084;-49
2023/03/07 10:39:42;;;;;;;9.38;4.90;;;;;;;12.01;41.59;94838.31;5049032;28;20445;-53
2023/03/07 10:42:12;;;;;;;9.52;5.30;;;;;;;12.18;41.82;94801.00;5049221;28;20485;-54
2023/03/07 10:44:40;;;;;;;6.45;3.80;;;;;;;12.83;44.90;94823.44;5048626;28;20084;-53
2023/03/07 10:47:17;;;;;;;9.95;5.18;;;;;;;12.38;45.00;94822.25;5049239;28;20485;-51
2023/03/07 10:49:47;;;;;;;9.23;4.38;;;;;;;12.00;40.70;94818.19;5048358;28;20085;-52
2023/03/07 10:52:31;;;;;;;8.57;4.50;;;;;;;12.58;40.26;94815.22;5050948;28;20080;-49
2023/03/07 10:55:31;;;;;;;10.57;6.07;;;;;;;12.04;41.44;94811.53;5048093;28;20083;-54
2023/03/07 10:58:12;;;;;;;11.80;4.38;;;;;;;11.40;40.30;94804.50;5048720;28;20064;-53
2023/03/07 11:00:43;;;;;;;11.23;5.13;;;;;;;11.68;42.90;94782.59;5049040;28;20265;-54
2023/03/07 11:03:26;;;;;;;10.10;4.93;;;;;;;11.60;41.54;94804.69;5048958;28;20088;-53
2023/03/07 11:05:54;;;;;;;9.32;4.43;;;;;;;12.04;43.37;94793.03;5047485;28;20538;-52
2023/03/07 11:08:32;;;;;;;10.30;4.78;;;;;;;12.08;41.94;94778.41;5049127;28;20080;-52
2023/03/07 11:11:02;;;;;;;9.18;3.95;;;;;;;12.07;40.51;94783.88;5048091;28;20079;-53
2023/03/07 11:13:31;;;;;;;9.35;4.53;;;;;;;11.67;40.37;94790.72;5048167;28;20801;-51
2023/03/07 11:16:10;;;;;;;7.50;4.05;;;;;;;12.14;42.13;94774.16;5048608;28;23358;-51
2023/03/07 11:18:41;;;;;;;10.45;5.20;;;;;;;12.17;41.87;94779.06;5048945;28;20080;-51
2023/03/07 11:21:27;;;;;;;8.05;4.53;;;;;;;12.42;43.59;94754.75;5046528;28;20084;-52
2023/03/07 11:24:01;;;;;;;8.13;4.30;;;;;;;12.73;41.54;94741.03;5046980;28;20507;-52
2023/03/07 11:26:33;;;;;;;11.15;4.85;;;;;;;12.35;41.89;94754.72;5044257;28;20076;-48
2023/03/07 11:29:06;;;;;;;9.02;4.18;;;;;;;12.81;41.78;94741.66;5048153;28;20080;-50
2023/03/07 11:31:40;;;;;;;9.45;4.32;;;;;;;12.98;41.36;94736.00;5048442;28;20095;-48
2023/03/07 11:34:20;;;;;;;7.22;4.00;;;;;;;12.56;40.48;94744.06;5048381;28;20073;-48
2023/03/07 11:36:55;;;;;;;11.23;4.72;;;;;;;12.54;40.54;94732.84;5046599;28;20080;-50
2023/03/07 11:39:32;;;;;;;8.55;4.97;;;;;;;12.63;41.00;94730.84;5048161;28;20081;-50
2023/03/07 11:42:04;;;;;;;8.20;4.25;;;;;;;12.28;40.13;94724.81;5050580;28;21738;-52
2023/03/07 11:44:37;;;;;;;12.25;6.07;;;;;;;12.20;39.95;94727.66;5041803;28;20089;-51
2023/03/07 11:47:24;;;;;;;11.57;5.60;;;;;;;12.25;41.52;94723.41;5047957;28;20080;-51
2023/03/07 11:50:11;;;;;;;11.10;3.90;;;;;;;12.85;42.35;94705.03;5048371;28;20088;-52